• Join FlightAware (Why Join?)
  • Login
  • US Flag 
09:09AM EST


 

Airport Tracker/Info


-or-


 

Live Flight TrackerFlight Track Log ✈ UAL3741 ✈ 03-May-2013 ✈ KSAT - KORD

Flight Track Log - Related Links

Times and Time Zones

All times are in EDT time to prevent confusion due to time zone crossing. See the UAL3741 flight status page for this flight to view local times or setup timezone preferences in your user account.

Time Position Orientation Groundspeed Altitude Reporting Facility
EDT Latitude Longitude Course Direction KTS MPH feet Rate Location/Type
08:20AM 29.5464 -98.4922 North 145 167 1,600  Level Houston Center
08:21AM 29.5700 -98.5356 302° West 154 177 3,900 1,800 Climbing Houston Center
08:22AM 29.6192 -98.5339 North 198 228 5,500 1,920 Climbing Houston Center
08:23AM 29.6825 -98.5156 14° North 231 266 7,900 2,280 Climbing Houston Center
08:24AM 29.7558 -98.4947 14° North 250 288 10,200 1,560 Climbing Houston Center
08:25AM 30.2359 -98.3568 North  Level FlightAware Approximate
08:25AM 29.8392 -98.4700 14° North 312 359 11,200  Level Houston Center
08:26AM 29.9356 -98.4442 13° North 334 384 13,700 2,040 Climbing Houston Center
08:27AM 30.0217 -98.4181 15° North 344 396 15,400 1,800 Climbing Houston Center
08:28AM 30.1233 -98.3831 17° North 352 405 17,400 1,620 Climbing Houston Center
08:29AM 30.2200 -98.3406 21° North 369 425 18,800 1,320 Climbing Houston Center
08:30AM 30.3133 -98.3011 20° North 375 432 20,200 1,260 Climbing Houston Center
08:31AM 30.4203 -98.2567 20° North 400 460 21,500 1,380 Climbing Houston Center
08:32AM 30.5267 -98.2119 20° North 402 463 23,100 1,320 Climbing Houston Center
08:33AM 30.6350 -98.1661 20° North 406 467 24,300 1,080 Climbing Houston Center
08:34AM 30.7458 -98.1197 20° North 415 478 25,400 1,140 Climbing Houston Center
08:35AM 30.8783 -98.0625 20° North 426 490 26,700 1,020 Climbing Houston Center
08:36AM 30.9939 -98.0122 20° North 434 499 27,600 840 Climbing Houston Center
08:37AM 31.0533 -97.9906 17° North 432 497 28,100 900 Climbing Fort Worth Center
08:38AM 31.1703 -97.9378 21° North 432 497 29,100 900 Climbing Fort Worth Center
08:39AM 31.2853 -97.8897 20° North 432 497 30,000 900 Climbing Fort Worth Center
08:40AM 31.4131 -97.8344 20° North 432 497 30,900 900 Climbing Fort Worth Center
08:41AM 31.5281 -97.7839 21° North 432 497 31,900 900 Climbing Fort Worth Center
08:42AM 31.6450 -97.7306 21° North 441 507 32,800 900 Climbing Fort Worth Center
08:43AM 31.7600 -97.6822 20° North 441 507 33,700 900 Climbing Fort Worth Center
08:44AM 31.8750 -97.6286 22° Northeast 441 507 34,600 600 Climbing Fort Worth Center
08:45AM 31.9753 -97.5872 19° North 441 507 35,000 180 Climbing Fort Worth Center
08:46AM 32.1025 -97.5261 22° Northeast 439 505 35,000  Level Fort Worth Center
08:47AM 32.2050 -97.4503 32° Northeast 457 526 35,000  Level Fort Worth Center
08:48AM 32.3303 -97.3594 31° Northeast 476 548 35,000  Level Fort Worth Center
08:49AM 32.4325 -97.2831 32° Northeast 476 548 35,000  Level Fort Worth Center
08:50AM 32.5556 -97.1892 33° Northeast 476 548 35,000  Level Fort Worth Center
08:51AM 32.6556 -97.1147 32° Northeast 476 548 35,000  Level Fort Worth Center
08:52AM 32.7764 -97.0256 32° Northeast 476 548 35,000  Level Fort Worth Center
08:53AM 32.8742 -96.9508 33° Northeast 471 542 35,000  Level Fort Worth Center
08:54AM 32.9950 -96.8661 30° Northeast 460 529 35,000  Level Fort Worth Center
08:55AM 33.0906 -96.7911 33° Northeast 455 524 35,000  Level Fort Worth Center
08:56AM 33.2114 -96.6983 33° Northeast 455 524 35,000  Level Fort Worth Center
08:57AM 33.3089 -96.6231 33° Northeast 455 524 35,000  Level Fort Worth Center
08:58AM 33.4189 -96.5400 32° Northeast 460 529 35,000  Level Fort Worth Center
08:59AM 33.5394 -96.4464 33° Northeast 460 529 35,000  Level Fort Worth Center
09:00AM 33.6389 -96.3706 32° Northeast 466 536 35,000  Level Fort Worth Center
09:01AM 33.7633 -96.2742 33° Northeast 471 542 35,000  Level Fort Worth Center
09:02AM 33.8711 -96.1878 34° Northeast 471 542 35,000  Level Fort Worth Center
09:03AM 33.9808 -96.1036 32° Northeast 471 542 35,000  Level Fort Worth Center
09:04AM 34.0906 -96.0192 33° Northeast 476 548 35,000  Level Fort Worth Center
09:05AM 34.2022 -95.9294 34° Northeast 476 548 35,000  Level Fort Worth Center
09:06AM 34.3139 -95.8419 33° Northeast 476 548 35,000  Level Fort Worth Center
09:07AM 34.4253 -95.7544 33° Northeast 476 548 35,000  Level Fort Worth Center
09:08AM 34.5367 -95.6639 34° Northeast 481 554 35,000  Level Fort Worth Center
09:09AM 34.6503 -95.5733 33° Northeast 481 554 35,000  Level Fort Worth Center
09:10AM 34.7678 -95.4850 32° Northeast 481 554 35,000  Level Fort Worth Center
09:11AM 34.8789 -95.3939 34° Northeast 481 554 35,000  Level Fort Worth Center
09:12AM 34.9922 -95.3050 33° Northeast 476 548 35,000  Level Fort Worth Center
09:13AM 35.1456 -95.1819 33° Northeast 512 589 35,000  Level Memphis Center
09:14AM 35.2575 -95.0917 33° Northeast 498 573 35,000  Level Memphis Center
09:15AM 35.3717 -94.9989 34° Northeast 493 567 35,000  Level Memphis Center
09:16AM 35.4833 -94.9056 34° Northeast 493 567 35,000  Level Memphis Center
09:17AM 35.5972 -94.8150 33° Northeast 493 567 35,000  Level Memphis Center
09:18AM 35.7111 -94.7186 34° Northeast 493 567 35,000  Level Memphis Center
09:19AM 35.8250 -94.6275 33° Northeast 493 567 35,000  Level Memphis Center
09:20AM 35.9386 -94.5308 35° Northeast 487 560 35,000  Level Memphis Center
09:21AM 36.0503 -94.4389 34° Northeast 487 560 35,000  Level Memphis Center
09:23AM 36.2542 -94.2700 34° Northeast 491 565 35,000  Level Kansas City Center
09:24AM 36.3672 -94.1772 33° Northeast 489 563 35,000  Level Kansas City Center
09:25AM 36.4806 -94.0819 34° Northeast 490 564 35,000  Level Kansas City Center
09:26AM 36.5931 -93.9869 34° Northeast 491 565 35,000  Level Kansas City Center
09:27AM 36.7078 -93.8906 34° Northeast 493 567 35,000  Level Kansas City Center
09:28AM 36.8208 -93.7950 34° Northeast 494 568 35,000  Level Kansas City Center
09:29AM 36.9361 -93.6956 35° Northeast 495 570 35,000  Level Kansas City Center
09:30AM 37.0525 -93.5978 34° Northeast 499 574 35,000  Level Kansas City Center
09:31AM 37.1678 -93.4992 34° Northeast 500 575 35,000  Level Kansas City Center
09:32AM 37.3072 -93.3811 34° Northeast 501 577 35,000  Level Kansas City Center
09:33AM 37.4208 -93.2789 36° Northeast 499 574 35,000  Level Kansas City Center
09:34AM 37.5319 -93.1747 37° Northeast 498 573 35,000  Level Kansas City Center
09:35AM 37.6453 -93.0697 36° Northeast 500 575 35,000  Level Kansas City Center
09:36AM 37.7581 -92.9639 37° Northeast 502 578 35,000  Level Kansas City Center
09:37AM 37.8711 -92.8572 37° Northeast 502 578 35,000  Level Kansas City Center
09:38AM 37.9850 -92.7497 37° Northeast 503 579 35,000  Level Kansas City Center
09:39AM 38.0894 -92.6525 36° Northeast 502 578 35,000  Level Kansas City Center
09:40AM 38.2128 -92.5347 37° Northeast 500 575 35,000  Level Kansas City Center
09:41AM 38.3272 -92.4267 37° Northeast 502 578 35,000  Level Kansas City Center
09:42AM 38.4392 -92.3206 37° Northeast 498 573 35,000  Level Kansas City Center
09:43AM 38.5503 -92.2128 37° Northeast 498 573 35,000  Level Kansas City Center
09:44AM 38.6619 -92.1047 37° Northeast 499 574 35,000  Level Kansas City Center
09:45AM 38.7742 -91.9972 37° Northeast 500 575 35,000  Level Kansas City Center
09:47AM 38.9092 -91.8669 37° Northeast 502 578 35,000  Level Kansas City Center
09:48AM 39.0192 -91.7597 37° Northeast 496 571 35,000  Level Kansas City Center
09:49AM 39.1094 -91.6728 37° Northeast 491 565 35,000  Level Kansas City Center
09:50AM 39.2392 -91.5458 37° Northeast 487 560 35,000  Level Kansas City Center
09:51AM 39.3464 -91.4414 37° Northeast 484 557 35,000  Level Kansas City Center
09:52AM 39.4525 -91.3369 37° Northeast 482 555 35,000 -240 Level Kansas City Center
09:53AM 39.5558 -91.2317 38° Northeast 477 549 34,600 -780 Descending Kansas City Center
09:54AM 39.6589 -91.1289 38° Northeast 471 542 33,500 -840 Descending Kansas City Center
09:55AM 39.7542 -91.0333 38° Northeast 459 528 33,000 -300 Descending Kansas City Center
09:56AM 39.8756 -90.9144 37° Northeast 460 529 33,000  Level Kansas City Center
09:57AM 39.9783 -90.8119 37° Northeast 464 534 33,000  Level Kansas City Center
09:58AM 40.0781 -90.7050 39° Northeast 464 534 33,000  Level Kansas City Center
09:58AM 40.1394 -90.6469 36° Northeast 464 534 33,000  Level Chicago Center
09:59AM 40.2422 -90.5411 38° Northeast 461 531 33,000  Level Chicago Center
10:00AM 40.3442 -90.4375 38° Northeast 461 531 33,000 -180 Level Chicago Center
10:01AM 40.4456 -90.3331 38° Northeast 463 533 32,700 -720 Descending Chicago Center
10:03AM 40.5494 -90.2261 38° Northeast 480 552 31,600 -1,320 Descending Chicago Center
10:04AM 40.6794 -90.0931 38° Northeast 493 567 30,000 -1,500 Descending Chicago Center
10:05AM 40.7861 -89.9828 38° Northeast 490 564 28,600 -1,380 Descending Chicago Center
10:06AM 40.8906 -89.8739 38° Northeast 482 555 27,200 -1,380 Descending Chicago Center
10:07AM 40.9914 -89.7672 39° Northeast 468 539 25,800 -1,500 Descending Chicago Center
10:08AM 41.0683 -89.6142 56° Northeast 447 514 24,200 -1,500 Descending Chicago Center
10:09AM 41.1353 -89.4789 57° Northeast 440 506 22,700 -1,860 Descending Chicago Center
10:10AM 41.2017 -89.3481 56° Northeast 429 494 20,400 -2,160 Descending Chicago Center
10:11AM 41.2633 -89.2225 57° Northeast 412 474 18,300 -2,100 Descending Chicago Center
10:12AM 41.3258 -89.0928 57° Northeast 401 461 16,100 -2,100 Descending Chicago Center
10:13AM 41.3853 -88.9706 57° Northeast 396 456 14,000 -2,040 Descending Chicago Center
10:14AM 41.4417 -88.8536 57° Northeast 380 437 12,000 -1,500 Descending Chicago Center
10:15AM 41.4972 -88.7394 57° Northeast 370 426 11,000 -540 Descending Chicago Center
10:16AM 41.5533 -88.6031 61° Northeast 348 400 11,000 -180 Level Chicago Center
10:17AM 41.5922 -88.5064 62° Northeast 300 345 10,700 -840 Descending Chicago Center
10:18AM 41.6314 -88.4267 57° Northeast 262 302 9,300 -1,320 Descending Chicago Center
10:19AM 41.6739 -88.3536 52° Northeast 252 290 8,000 -660 Descending Chicago Center
10:20AM 41.7175 -88.2806 51° Northeast 251 289 8,000  Level Chicago Center
10:21AM 41.7608 -88.2067 52° Northeast 253 291 8,000  Level Chicago Center
10:22AM 41.8164 -88.1503 37° Northeast 237 273 8,000 -540 Level Chicago Center
10:23AM 41.8747 -88.1839 337° Northwest 230 265 7,000 -540 Descending Chicago Center
10:24AM 41.8917 -88.2539 288° West 215 247 7,000  Level Chicago Center
10:25AM 41.8958 -88.3331 274° West 213 245 7,000  Level Chicago Center
10:26AM 41.9008 -88.4097 275° West 209 241 7,000  Level Chicago Center
10:27AM 41.9042 -88.4975 273° West 220 253 7,000  Level Chicago Center
10:28AM 41.9583 -88.4947 North 213 245 7,000  Level Chicago Center
10:29AM 41.9714 -88.4294 75° East 183 211 7,000  Level Chicago Center
10:30AM 41.9667 -88.3708 96° East 162 186 7,000 -300 Level Chicago Center
10:31AM 41.9653 -88.3092 92° East 166 191 6,500 -780 Descending Chicago Center
10:32AM 41.9692 -88.2472 85° East 166 191 5,400 -1,020 Descending Chicago Center
10:34AM 41.9667 -88.1869 93° East 163 188 4,500 -1,020 Descending Chicago Center
10:35AM 41.9686 -88.1117 88° East 166 191 3,400 -1,080 Descending Chicago Center